Firenze / Peretola Airport LIRQ

Flugplatz Daten

Name: Firenze / Peretola Airport

Ident: LIRQ

Lat: 43,81000137

Long: 11,20510006

Platzhöhe: 142 ft

IataCode: FLR

City: Firenze

Homepage: http://www.aeroporto.firenze.it/

Metar

2021/08/05 13:20
LIRQ 051320Z 25013KT 220V290 9999 SCT050 26/16 Q1009

Taf

2021/08/05 12:00
TAF LIRQ 051100Z 0512/0612 25014KT 9999 SCT030
BECMG 0518/0520 VRB05KT
Gewünschte Webcam nicht vorhanden? Dann fügen Sie eine hinzu. Sie wird dann so schnell wie möglich freigeschaltet
Url: Title: